createdAt,value
2018-07-13T00:00:07.726Z,80.60
2018-07-13T00:02:35.789Z,80.40
2018-07-13T00:05:04.109Z,80.10
2018-07-13T00:07:32.534Z,80.20
2018-07-13T00:10:00.644Z,80.20
2018-07-13T00:12:28.756Z,80.10
2018-07-13T00:15:05.545Z,80.20
2018-07-13T00:17:33.630Z,80.20
2018-07-13T00:20:01.741Z,79.80
2018-07-13T00:24:57.716Z,79.90
2018-07-13T00:27:25.810Z,79.60
2018-07-13T00:29:53.904Z,80.00
2018-07-13T00:32:22.017Z,80.40
2018-07-13T00:34:50.117Z,80.30
2018-07-13T00:37:18.226Z,80.70
2018-07-13T00:39:46.327Z,80.90
2018-07-13T00:42:14.456Z,81.00
2018-07-13T00:44:42.534Z,81.50
2018-07-13T00:47:10.615Z,82.00
2018-07-13T00:49:38.676Z,82.50
2018-07-13T00:54:34.672Z,81.90
2018-07-13T00:57:04.112Z,82.40
2018-07-13T00:59:32.227Z,82.10
2018-07-13T01:02:00.451Z,82.60
2018-07-13T01:04:29.037Z,82.90
2018-07-13T01:06:57.192Z,82.60
2018-07-13T01:09:25.293Z,82.40
2018-07-13T01:11:53.437Z,82.40
2018-07-13T01:14:21.480Z,82.80
2018-07-13T01:16:49.574Z,82.90
2018-07-13T01:19:17.821Z,82.90
2018-07-13T01:24:13.838Z,83.90
2018-07-13T01:26:44.617Z,83.00
2018-07-13T01:31:40.558Z,82.30
2018-07-13T01:36:36.599Z,82.50
2018-07-13T01:39:07.589Z,81.70
2018-07-13T01:41:35.665Z,81.80
2018-07-13T01:44:03.736Z,81.90
2018-07-13T01:46:31.928Z,82.00
2018-07-13T01:48:59.998Z,82.80
2018-07-13T01:51:29.849Z,82.30
2018-07-13T01:53:57.941Z,82.50
2018-07-13T01:56:25.989Z,82.70
2018-07-13T01:58:54.083Z,83.10
2018-07-13T02:01:22.188Z,83.30
2018-07-13T02:03:50.249Z,83.30
2018-07-13T02:06:18.345Z,83.10
2018-07-13T02:11:14.477Z,82.40
2018-07-13T02:13:42.561Z,82.40
2018-07-13T02:16:10.629Z,82.20
2018-07-13T02:18:38.662Z,82.30
2018-07-13T02:21:06.833Z,82.40
2018-07-13T02:23:34.917Z,82.50
2018-07-13T02:26:02.984Z,82.80
2018-07-13T02:28:31.069Z,82.80
2018-07-13T02:30:59.166Z,83.00
2018-07-13T02:33:27.318Z,83.40
2018-07-13T02:35:55.353Z,83.60
2018-07-13T02:38:23.430Z,84.00
2018-07-13T02:40:51.489Z,84.20
2018-07-13T02:43:19.561Z,84.50
2018-07-13T02:45:47.638Z,83.50
2018-07-13T02:48:15.692Z,83.50
2018-07-13T02:50:43.814Z,83.70
2018-07-13T02:55:39.748Z,83.20
2018-07-13T02:58:07.829Z,83.20
2018-07-13T03:00:35.937Z,83.50
2018-07-13T03:05:32.028Z,83.80
2018-07-13T03:08:00.152Z,83.70
2018-07-13T03:10:28.269Z,83.20
2018-07-13T03:12:57.013Z,83.00
2018-07-13T03:17:52.993Z,82.80
2018-07-13T03:20:21.120Z,82.90
2018-07-13T03:22:50.493Z,82.70
2018-07-13T03:25:18.536Z,82.90
2018-07-13T03:27:46.603Z,83.20
2018-07-13T03:30:14.710Z,83.30
2018-07-13T03:32:42.765Z,84.10
2018-07-13T03:35:10.865Z,83.00
2018-07-13T03:37:38.905Z,83.00
2018-07-13T03:42:34.869Z,83.10
2018-07-13T03:45:02.912Z,82.80
2018-07-13T03:47:31.139Z,82.90
2018-07-13T03:49:59.169Z,82.90
2018-07-13T03:52:27.277Z,82.60
2018-07-13T03:54:55.333Z,82.70
2018-07-13T03:57:23.405Z,83.20
2018-07-13T03:59:51.470Z,83.40
2018-07-13T04:02:19.549Z,83.40
2018-07-13T04:04:47.655Z,83.40
2018-07-13T04:07:16.788Z,83.20
2018-07-13T04:09:44.869Z,83.70
2018-07-13T04:12:12.914Z,82.80
2018-07-13T04:14:41.000Z,82.90
2018-07-13T04:17:09.109Z,82.80
2018-07-13T04:19:37.191Z,82.70
2018-07-13T04:22:05.546Z,82.70
2018-07-13T04:24:33.603Z,82.80
2018-07-13T04:27:02.473Z,82.50
2018-07-13T04:29:30.544Z,82.80
2018-07-13T04:34:26.675Z,82.80
2018-07-13T04:36:54.789Z,82.60
2018-07-13T04:39:22.853Z,81.90
2018-07-13T04:41:50.932Z,82.30
2018-07-13T04:46:46.881Z,83.00
2018-07-13T04:51:42.793Z,83.40
2018-07-13T04:54:10.873Z,83.70
2018-07-13T04:56:38.913Z,83.00
2018-07-13T04:59:07.022Z,82.80
2018-07-13T05:01:35.067Z,82.60
2018-07-13T05:04:03.148Z,81.80
2018-07-13T05:06:31.225Z,81.20
2018-07-13T05:08:59.305Z,80.90
2018-07-13T05:11:27.369Z,81.20
2018-07-13T05:13:55.492Z,81.60
2018-07-13T05:16:23.561Z,81.50
2018-07-13T05:18:51.649Z,81.70
2018-07-13T05:21:19.769Z,81.90
2018-07-13T05:23:47.854Z,82.50
2018-07-13T05:26:15.957Z,83.00
2018-07-13T05:28:44.226Z,83.00
2018-07-13T05:31:12.703Z,82.40
2018-07-13T05:33:40.930Z,82.60
2018-07-13T05:36:09.006Z,82.20
2018-07-13T05:38:37.157Z,80.90
2018-07-13T05:41:05.325Z,80.40
2018-07-13T05:43:33.366Z,79.90
2018-07-13T05:46:01.465Z,80.00
2018-07-13T05:48:30.745Z,79.80
2018-07-13T05:50:58.990Z,79.70
2018-07-13T05:53:27.188Z,79.20
2018-07-13T05:58:23.391Z,79.80
2018-07-13T06:00:51.465Z,78.90
2018-07-13T06:03:19.626Z,78.90
2018-07-13T06:05:47.793Z,79.10
2018-07-13T06:10:43.867Z,78.80
2018-07-13T06:13:11.952Z,78.70
2018-07-13T06:15:40.010Z,79.60
2018-07-13T06:18:08.095Z,78.70
2018-07-13T06:20:36.165Z,78.50
2018-07-13T06:23:04.312Z,78.50
2018-07-13T06:25:32.401Z,78.40
2018-07-13T06:28:00.574Z,78.50
2018-07-13T06:30:28.704Z,78.20
2018-07-13T06:32:56.780Z,77.90
2018-07-13T06:35:24.885Z,77.30
2018-07-13T06:37:52.967Z,76.90
2018-07-13T06:40:21.105Z,77.00
2018-07-13T06:42:49.168Z,76.90
2018-07-13T06:45:17.259Z,76.70
2018-07-13T06:47:45.578Z,77.30
2018-07-13T06:55:09.721Z,76.90
2018-07-13T06:57:49.322Z,76.60
2018-07-13T07:01:00.141Z,76.50
2018-07-13T07:03:29.413Z,76.30
2018-07-13T07:06:04.385Z,76.00
2018-07-13T07:08:32.474Z,75.90
2018-07-13T07:11:00.609Z,75.80
2018-07-13T07:13:30.927Z,76.20
2018-07-13T07:15:59.279Z,76.40
2018-07-13T07:18:27.396Z,75.80
2018-07-13T07:20:56.393Z,76.40
2018-07-13T07:23:24.493Z,76.80
2018-07-13T07:25:52.985Z,76.50
2018-07-13T07:28:21.041Z,76.60
2018-07-13T07:30:49.117Z,76.00
2018-07-13T07:33:17.186Z,76.50
2018-07-13T07:35:45.245Z,76.80
2018-07-13T07:40:41.248Z,77.00
2018-07-13T07:43:09.305Z,76.90
2018-07-13T07:45:37.539Z,76.40
2018-07-13T07:48:05.672Z,75.10
2018-07-13T07:50:33.773Z,75.10
2018-07-13T07:53:01.917Z,74.60
2018-07-13T07:55:30.061Z,74.40
2018-07-13T08:00:26.075Z,75.20
2018-07-13T08:02:54.377Z,74.30
2018-07-13T08:05:22.425Z,74.70
2018-07-13T08:07:50.502Z,74.90
2018-07-13T08:10:18.568Z,75.20
2018-07-13T08:12:46.656Z,75.30
2018-07-13T08:15:14.702Z,75.30
2018-07-13T08:17:42.770Z,74.80
2018-07-13T08:20:10.869Z,74.90
2018-07-13T08:22:44.320Z,75.20
2018-07-13T08:25:13.528Z,75.20
2018-07-13T08:27:44.853Z,74.90
2018-07-13T08:30:15.805Z,75.60
2018-07-13T08:32:43.989Z,74.60
2018-07-13T08:35:12.037Z,74.90
2018-07-13T08:37:40.107Z,75.70
2018-07-13T08:40:08.162Z,74.80
2018-07-13T08:42:36.211Z,74.80
2018-07-13T08:45:04.334Z,74.60
2018-07-13T08:47:32.698Z,75.00
2018-07-13T08:50:00.869Z,75.10
2018-07-13T08:52:29.361Z,75.50
2018-07-13T08:54:58.953Z,74.40
2018-07-13T08:57:27.058Z,74.20
2018-07-13T08:59:55.191Z,74.10
2018-07-13T09:02:23.269Z,74.30
2018-07-13T09:04:51.410Z,74.30
2018-07-13T09:07:19.440Z,74.00
2018-07-13T09:09:47.496Z,74.60
2018-07-13T09:12:15.579Z,73.40
2018-07-13T09:14:43.620Z,73.20
2018-07-13T09:17:11.674Z,72.90
2018-07-13T09:19:39.713Z,71.80
2018-07-13T09:22:07.779Z,71.60
2018-07-13T09:24:35.845Z,71.60
2018-07-13T09:27:03.922Z,71.50
2018-07-13T09:29:32.030Z,71.70
2018-07-13T09:32:00.158Z,69.80
2018-07-13T09:34:28.281Z,68.80
2018-07-13T09:36:56.369Z,68.30
2018-07-13T09:39:24.563Z,67.40
2018-07-13T09:41:52.713Z,67.10
2018-07-13T09:44:20.779Z,66.40
2018-07-13T09:46:48.965Z,65.90
2018-07-13T09:49:16.970Z,65.00
2018-07-13T09:51:45.020Z,65.20
2018-07-13T09:54:13.141Z,65.40
2018-07-13T09:56:41.186Z,64.60
2018-07-13T09:59:09.217Z,63.70
2018-07-13T10:01:37.305Z,63.20
2018-07-13T10:04:05.340Z,62.50
2018-07-13T10:06:33.415Z,60.90
2018-07-13T10:09:01.486Z,59.10
2018-07-13T10:11:29.643Z,58.70
2018-07-13T10:13:57.729Z,57.90
2018-07-13T10:16:25.806Z,55.90
2018-07-13T10:18:53.881Z,54.90
2018-07-13T10:21:21.987Z,54.80
2018-07-13T10:23:50.034Z,54.50
2018-07-13T10:26:23.125Z,54.30
2018-07-13T10:28:51.361Z,54.60
2018-07-13T10:31:19.441Z,55.00
2018-07-13T10:33:52.425Z,54.80
2018-07-13T10:36:20.897Z,54.10
2018-07-13T10:38:48.945Z,53.40
2018-07-13T10:41:17.166Z,53.40
2018-07-13T10:43:49.675Z,53.90
2018-07-13T10:46:17.741Z,54.60
2018-07-13T10:48:45.838Z,54.00
2018-07-13T10:51:13.902Z,54.00
2018-07-13T10:53:42.014Z,54.40
2018-07-13T10:56:10.057Z,53.60
2018-07-13T10:58:38.156Z,53.70
2018-07-13T11:03:34.041Z,53.40
2018-07-13T11:06:02.151Z,53.00
2018-07-13T11:08:30.264Z,53.20
2018-07-13T11:10:58.345Z,54.00
2018-07-13T11:13:26.421Z,53.70
2018-07-13T11:15:54.517Z,53.90
2018-07-13T11:18:22.609Z,53.50
2018-07-13T11:20:50.665Z,53.70
2018-07-13T11:23:18.813Z,53.70
2018-07-13T11:25:46.890Z,53.50
2018-07-13T11:28:14.968Z,54.00
2018-07-13T11:30:43.022Z,54.80
2018-07-13T11:33:11.100Z,54.80
2018-07-13T11:35:39.180Z,54.60
2018-07-13T11:38:07.375Z,54.60
2018-07-13T11:40:35.441Z,54.50
2018-07-13T11:43:03.569Z,54.80
2018-07-13T11:45:31.601Z,54.90
2018-07-13T11:47:59.669Z,54.90
2018-07-13T11:50:27.780Z,54.80
2018-07-13T11:52:55.826Z,54.80
2018-07-13T11:55:23.929Z,54.80
2018-07-13T11:57:52.042Z,54.80
2018-07-13T12:00:20.214Z,54.90
2018-07-13T12:02:48.289Z,55.30
2018-07-13T12:05:16.629Z,55.30
2018-07-13T12:07:44.911Z,55.30
2018-07-13T12:10:12.865Z,55.20
2018-07-13T12:12:41.093Z,55.20
2018-07-13T12:15:09.136Z,55.60
2018-07-13T12:17:37.281Z,56.30
2018-07-13T12:20:05.371Z,56.70
2018-07-13T12:22:33.461Z,56.80
2018-07-13T12:25:01.543Z,57.10
2018-07-13T12:27:29.632Z,57.40
2018-07-13T12:29:57.741Z,57.50
2018-07-13T12:32:25.895Z,57.60
2018-07-13T12:34:53.954Z,57.60
2018-07-13T12:37:22.068Z,57.70
2018-07-13T12:39:50.195Z,57.70
2018-07-13T12:42:18.239Z,58.10
2018-07-13T12:44:46.336Z,57.80
2018-07-13T12:47:14.408Z,58.10
2018-07-13T12:49:42.494Z,58.40
2018-07-13T12:52:10.564Z,58.40
2018-07-13T12:54:38.659Z,58.50
2018-07-13T12:57:06.741Z,58.80
2018-07-13T12:59:34.890Z,58.70
2018-07-13T13:02:03.840Z,58.60
2018-07-13T13:04:31.940Z,58.40
2018-07-13T13:07:00.057Z,58.30
2018-07-13T13:09:28.146Z,59.10
2018-07-13T13:11:56.249Z,59.30
2018-07-13T13:14:24.328Z,59.40
2018-07-13T13:16:52.401Z,59.50
2018-07-13T13:19:20.471Z,59.60
2018-07-13T13:21:48.569Z,59.30
2018-07-13T13:24:16.986Z,59.30
2018-07-13T13:26:45.099Z,59.70
2018-07-13T13:29:13.181Z,59.90
2018-07-13T13:31:41.236Z,59.90
2018-07-13T13:34:09.335Z,60.10
2018-07-13T13:36:37.794Z,60.00
2018-07-13T13:39:05.856Z,59.90
2018-07-13T13:41:33.886Z,60.00
2018-07-13T13:44:02.020Z,60.10
2018-07-13T13:46:30.101Z,61.00
2018-07-13T13:48:58.176Z,60.00
2018-07-13T13:51:26.265Z,60.30
2018-07-13T13:53:54.540Z,60.30
2018-07-13T13:56:22.648Z,60.50
2018-07-13T13:58:50.830Z,60.30
2018-07-13T14:01:18.885Z,60.30
2018-07-13T14:03:47.006Z,61.40
2018-07-13T14:06:15.062Z,60.60
2018-07-13T14:08:43.170Z,60.40
2018-07-13T14:11:11.258Z,60.30
2018-07-13T14:13:39.308Z,60.30
2018-07-13T14:16:07.381Z,60.40
2018-07-13T14:18:35.817Z,60.70
2018-07-13T14:21:04.135Z,60.80
2018-07-13T14:23:32.332Z,60.50
2018-07-13T14:26:00.357Z,60.70
2018-07-13T14:28:28.428Z,60.70
2018-07-13T14:30:56.501Z,60.70
2018-07-13T14:33:24.589Z,61.10
2018-07-13T14:35:52.633Z,60.90
2018-07-13T14:38:20.697Z,60.90
2018-07-13T14:40:48.769Z,60.70
2018-07-13T14:43:16.848Z,60.70
2018-07-13T14:45:45.026Z,60.50
2018-07-13T14:48:13.085Z,60.50
2018-07-13T14:50:41.158Z,60.50
2018-07-13T14:53:09.216Z,60.80
2018-07-13T14:55:37.309Z,60.90
2018-07-13T14:58:05.453Z,61.30
2018-07-13T15:00:33.581Z,61.30
2018-07-13T15:03:01.654Z,61.30
2018-07-13T15:10:25.636Z,60.10
2018-07-13T15:12:53.741Z,59.90
2018-07-13T15:15:21.805Z,60.30
2018-07-13T15:17:49.927Z,60.50
2018-07-13T15:20:18.033Z,60.70
2018-07-13T15:22:46.122Z,60.70
2018-07-13T15:25:14.300Z,60.80
2018-07-13T15:27:42.358Z,60.80
2018-07-13T15:30:10.437Z,61.30
2018-07-13T15:32:38.497Z,61.30
2018-07-13T15:35:06.567Z,61.40
2018-07-13T15:37:34.639Z,61.20
2018-07-13T15:40:02.729Z,61.60
2018-07-13T15:42:30.785Z,61.50
2018-07-13T15:44:58.869Z,61.80
2018-07-13T15:47:26.938Z,61.60
2018-07-13T15:49:56.058Z,61.80
2018-07-13T15:52:24.101Z,61.70
2018-07-13T15:54:52.202Z,61.70
2018-07-13T15:57:20.228Z,61.70
2018-07-13T15:59:48.292Z,61.00
2018-07-13T16:02:16.356Z,61.30
2018-07-13T16:04:44.445Z,61.70
2018-07-13T16:07:12.520Z,61.10
2018-07-13T16:09:40.560Z,61.20
2018-07-13T16:12:08.634Z,61.40
2018-07-13T16:14:36.708Z,61.60
2018-07-13T16:17:04.785Z,61.60
2018-07-13T16:19:32.860Z,61.50
2018-07-13T16:22:01.004Z,61.70
2018-07-13T16:24:29.120Z,61.80
2018-07-13T16:26:58.936Z,61.90
2018-07-13T16:29:27.094Z,62.10
2018-07-13T16:31:55.196Z,62.50
2018-07-13T16:34:23.533Z,62.50
2018-07-13T16:36:51.649Z,62.40
2018-07-13T16:39:19.674Z,62.40
2018-07-13T16:41:47.736Z,62.30
2018-07-13T16:44:15.792Z,62.50
2018-07-13T16:46:43.849Z,62.40
2018-07-13T16:49:11.967Z,62.70
2018-07-13T16:51:40.037Z,62.80
2018-07-13T16:54:08.141Z,63.30
2018-07-13T16:56:36.257Z,63.20
2018-07-13T16:59:04.324Z,63.90
2018-07-13T17:01:34.596Z,64.30
2018-07-13T17:04:02.789Z,63.90
2018-07-13T17:06:32.658Z,63.00
2018-07-13T17:09:00.874Z,63.30
2018-07-13T17:11:28.940Z,63.10
2018-07-13T17:13:57.059Z,63.70
2018-07-13T17:16:25.160Z,64.00
2018-07-13T17:18:53.286Z,64.10
2018-07-13T17:21:21.404Z,64.20
2018-07-13T17:23:49.509Z,64.70
2018-07-13T17:26:17.652Z,64.70
2018-07-13T17:28:45.705Z,64.60
2018-07-13T17:31:13.841Z,64.40
2018-07-13T17:33:41.898Z,64.90
2018-07-13T17:36:10.038Z,65.40
2018-07-13T17:38:39.199Z,65.00
2018-07-13T17:41:07.361Z,64.90
2018-07-13T17:43:35.451Z,65.00
2018-07-13T17:46:03.599Z,65.30
2018-07-13T17:48:31.730Z,65.60
2018-07-13T17:50:59.824Z,65.50
2018-07-13T17:53:27.951Z,65.60
2018-07-13T17:55:56.047Z,66.00
2018-07-13T17:58:24.220Z,66.30
2018-07-13T18:00:52.443Z,66.90
2018-07-13T18:03:20.460Z,66.80
2018-07-13T18:05:48.538Z,66.90
2018-07-13T18:08:16.637Z,67.60
2018-07-13T18:10:44.700Z,67.50
2018-07-13T18:13:12.744Z,67.50
2018-07-13T18:15:40.840Z,67.50
2018-07-13T18:18:08.993Z,67.80
2018-07-13T18:20:37.165Z,67.50
2018-07-13T18:23:05.324Z,68.00
2018-07-13T18:25:33.377Z,68.10
2018-07-13T18:28:01.559Z,68.00
2018-07-13T18:30:29.661Z,69.10
2018-07-13T18:32:57.807Z,68.70
2018-07-13T18:35:25.885Z,67.50
2018-07-13T18:37:53.956Z,67.50
2018-07-13T18:40:22.091Z,67.90
2018-07-13T18:42:50.184Z,68.10
2018-07-13T18:45:18.776Z,68.10
2018-07-13T18:47:47.584Z,68.50
2018-07-13T18:50:17.452Z,68.20
2018-07-13T18:52:45.994Z,68.90
2018-07-13T18:55:14.431Z,68.70
2018-07-13T18:57:42.822Z,69.30
2018-07-13T19:00:10.873Z,69.50
2018-07-13T19:02:38.930Z,69.30
2018-07-13T19:05:10.766Z,69.90
2018-07-13T19:07:38.996Z,69.50
2018-07-13T19:10:07.054Z,69.50
2018-07-13T19:12:36.587Z,69.60
2018-07-13T19:15:04.972Z,69.80
2018-07-13T19:17:33.331Z,70.00
2018-07-13T19:20:01.456Z,70.30
2018-07-13T19:22:29.533Z,70.50
2018-07-13T19:24:57.597Z,70.50
2018-07-13T19:27:27.011Z,69.70
2018-07-13T19:29:55.090Z,69.80
2018-07-13T19:32:23.186Z,69.40
2018-07-13T19:34:51.304Z,69.30
2018-07-13T19:37:19.374Z,70.20
2018-07-13T19:39:47.443Z,71.20
2018-07-13T19:42:15.577Z,72.00
2018-07-13T19:44:43.585Z,72.70
2018-07-13T19:47:11.644Z,73.40
2018-07-13T19:49:39.821Z,74.00
2018-07-13T19:52:07.869Z,74.60
2018-07-13T19:54:35.965Z,74.90
2018-07-13T19:57:04.078Z,75.40
2018-07-13T19:59:32.118Z,75.80
2018-07-13T20:02:00.222Z,75.70
2018-07-13T20:04:28.258Z,75.80
2018-07-13T20:06:56.317Z,76.20
2018-07-13T20:09:24.392Z,76.40
2018-07-13T20:11:52.513Z,76.60
2018-07-13T20:14:20.576Z,76.60
2018-07-13T20:16:49.583Z,75.90
2018-07-13T20:19:17.657Z,75.90
2018-07-13T20:21:47.409Z,75.90
2018-07-13T20:24:15.456Z,76.10
2018-07-13T20:26:43.493Z,76.10
2018-07-13T20:29:17.181Z,76.50
2018-07-13T20:31:45.272Z,76.70
2018-07-13T20:34:13.584Z,76.30
2018-07-13T20:36:48.844Z,76.70
2018-07-13T20:39:16.994Z,77.00
2018-07-13T20:41:45.085Z,77.00
2018-07-13T20:44:13.273Z,77.10
2018-07-13T20:46:41.505Z,77.30
2018-07-13T20:49:09.561Z,77.30
2018-07-13T20:51:37.624Z,77.60
2018-07-13T20:54:05.742Z,78.00
2018-07-13T20:59:02.673Z,77.50
2018-07-13T21:01:30.958Z,77.40
2018-07-13T21:03:59.356Z,77.20
2018-07-13T21:06:27.444Z,77.90
2018-07-13T21:11:26.875Z,78.10
2018-07-13T21:13:55.058Z,78.30
2018-07-13T21:16:23.936Z,77.70
2018-07-13T21:18:51.976Z,78.00
2018-07-13T21:21:22.229Z,78.10
2018-07-13T21:28:47.265Z,78.10
2018-07-13T21:31:16.390Z,78.00
2018-07-13T21:33:45.452Z,78.10
2018-07-13T21:36:13.557Z,78.10
2018-07-13T21:38:52.015Z,78.00
2018-07-13T21:41:20.081Z,78.00
2018-07-13T21:43:48.400Z,78.10
2018-07-13T21:46:16.445Z,78.20
2018-07-13T21:48:44.595Z,78.20
2018-07-13T21:51:12.677Z,78.30
2018-07-13T21:56:08.668Z,78.40
2018-07-13T21:58:36.753Z,78.70
2018-07-13T22:01:04.849Z,78.70
2018-07-13T22:03:32.916Z,78.30
2018-07-13T22:06:00.997Z,78.30
2018-07-13T22:08:29.134Z,78.20
2018-07-13T22:10:57.208Z,78.40
2018-07-13T22:13:25.412Z,78.30
2018-07-13T22:15:53.393Z,78.40
2018-07-13T22:18:21.445Z,78.50
2018-07-13T22:20:49.561Z,78.70
2018-07-13T22:23:17.685Z,78.40
2018-07-13T22:25:45.791Z,78.40
2018-07-13T22:28:13.848Z,78.70
2018-07-13T22:30:41.926Z,78.90
2018-07-13T22:33:09.998Z,78.50
2018-07-13T22:35:38.057Z,78.40
2018-07-13T22:38:06.436Z,78.50
2018-07-13T22:40:34.533Z,78.40
2018-07-13T22:43:02.565Z,77.70
2018-07-13T22:47:58.476Z,78.10
2018-07-13T22:50:26.582Z,78.10
2018-07-13T22:52:54.648Z,78.10
2018-07-13T22:55:22.730Z,77.80
2018-07-13T22:57:50.783Z,77.60
2018-07-13T23:00:18.866Z,77.50
2018-07-13T23:02:46.914Z,77.60
2018-07-13T23:05:15.034Z,77.70
2018-07-13T23:07:43.118Z,77.90
2018-07-13T23:10:11.189Z,78.10
2018-07-13T23:12:39.256Z,78.20
2018-07-13T23:15:07.474Z,78.20
2018-07-13T23:17:35.677Z,78.30
2018-07-13T23:20:03.741Z,78.50
2018-07-13T23:22:31.821Z,78.70
2018-07-13T23:25:04.524Z,78.80
2018-07-13T23:27:32.598Z,79.00
2018-07-13T23:30:02.991Z,78.70
2018-07-13T23:32:33.006Z,78.70
2018-07-13T23:35:07.463Z,78.90
2018-07-13T23:37:38.755Z,79.10
2018-07-13T23:40:06.890Z,78.80
2018-07-13T23:42:35.150Z,79.00
2018-07-13T23:45:05.443Z,79.00
2018-07-13T23:47:33.581Z,79.20
2018-07-13T23:50:01.802Z,79.30
2018-07-13T23:52:29.987Z,79.20
2018-07-13T23:54:58.037Z,79.60
2018-07-13T23:57:26.121Z,80.30
2018-07-13T23:59:54.344Z,79.70
